createdAt,value
2017-11-27T00:01:47.955Z,75.10
2017-11-27T00:04:16.645Z,74.80
2017-11-27T00:06:45.336Z,74.80
2017-11-27T00:09:12.829Z,74.20
2017-11-27T00:11:41.198Z,73.90
2017-11-27T00:14:09.471Z,73.80
2017-11-27T00:16:37.756Z,73.80
2017-11-27T00:19:06.012Z,73.80
2017-11-27T00:21:33.506Z,73.80
2017-11-27T00:24:01.017Z,74.00
2017-11-27T00:26:28.508Z,74.10
2017-11-27T00:28:56.788Z,74.50
2017-11-27T00:31:25.054Z,74.70
2017-11-27T00:33:53.542Z,74.60
2017-11-27T00:36:21.820Z,74.70
2017-11-27T00:38:50.109Z,74.60
2017-11-27T00:41:17.621Z,74.60
2017-11-27T00:43:45.133Z,74.70
2017-11-27T00:46:12.640Z,74.60
2017-11-27T00:48:40.149Z,74.40
2017-11-27T00:51:07.644Z,74.30
2017-11-27T00:53:35.141Z,73.80
2017-11-27T00:56:03.412Z,73.70
2017-11-27T00:58:30.908Z,73.60
2017-11-27T01:00:58.408Z,73.80
2017-11-27T01:03:25.913Z,73.50
2017-11-27T01:05:53.429Z,73.20
2017-11-27T01:08:20.924Z,72.90
2017-11-27T01:10:49.209Z,73.10
2017-11-27T01:13:16.724Z,73.10
2017-11-27T01:15:44.239Z,73.70
2017-11-27T01:18:11.757Z,74.00
2017-11-27T01:20:40.029Z,74.10
2017-11-27T01:23:07.540Z,74.10
2017-11-27T01:25:35.041Z,73.70
2017-11-27T01:28:02.556Z,73.30
2017-11-27T01:30:30.064Z,73.30
2017-11-27T01:32:57.589Z,73.60
2017-11-27T01:35:25.088Z,73.90
2017-11-27T01:37:53.348Z,74.50
2017-11-27T01:40:20.859Z,74.50
2017-11-27T01:42:48.381Z,74.50
2017-11-27T01:45:16.654Z,75.30
2017-11-27T01:47:44.925Z,75.40
2017-11-27T01:50:13.207Z,76.00
2017-11-27T01:52:41.476Z,75.30
2017-11-27T01:55:08.982Z,75.30
2017-11-27T01:57:36.496Z,75.00
2017-11-27T02:00:03.998Z,75.10
2017-11-27T02:02:31.511Z,74.80
2017-11-27T02:04:59.011Z,74.30
2017-11-27T02:07:26.509Z,74.30
2017-11-27T02:09:54.037Z,74.10
2017-11-27T02:12:21.547Z,74.00
2017-11-27T02:14:49.832Z,74.80
2017-11-27T02:17:18.097Z,74.80
2017-11-27T02:19:45.620Z,74.70
2017-11-27T02:22:13.120Z,75.20
2017-11-27T02:24:41.388Z,74.60
2017-11-27T02:27:08.908Z,74.60
2017-11-27T02:29:36.413Z,74.60
2017-11-27T02:32:04.697Z,74.70
2017-11-27T02:34:32.969Z,75.20
2017-11-27T02:37:01.247Z,75.40
2017-11-27T02:39:29.544Z,75.30
2017-11-27T02:41:57.068Z,75.30
2017-11-27T02:44:24.581Z,75.30
2017-11-27T02:46:52.082Z,75.50
2017-11-27T02:49:19.576Z,74.80
2017-11-27T02:51:47.073Z,75.30
2017-11-27T02:54:14.578Z,75.00
2017-11-27T02:56:42.860Z,75.20
2017-11-27T02:59:11.123Z,75.50
2017-11-27T03:01:39.390Z,76.70
2017-11-27T03:04:06.886Z,75.90
2017-11-27T03:06:34.533Z,76.00
2017-11-27T03:09:03.008Z,76.30
2017-11-27T03:11:31.268Z,76.50
2017-11-27T03:13:59.540Z,77.00
2017-11-27T03:16:27.063Z,76.70
2017-11-27T03:18:54.565Z,76.60
2017-11-27T03:21:22.848Z,76.30
2017-11-27T03:23:51.116Z,76.50
2017-11-27T03:26:19.416Z,76.50
2017-11-27T03:28:46.932Z,76.30
2017-11-27T03:31:14.436Z,76.10
2017-11-27T03:33:41.946Z,76.50
2017-11-27T03:36:09.460Z,76.80
2017-11-27T03:38:36.965Z,76.50
2017-11-27T03:41:04.462Z,76.70
2017-11-27T03:43:32.752Z,76.30
2017-11-27T03:46:00.269Z,76.30
2017-11-27T03:48:27.788Z,76.60
2017-11-27T03:50:55.294Z,76.70
2017-11-27T03:53:22.811Z,76.80
2017-11-27T03:55:50.342Z,77.60
2017-11-27T03:58:17.844Z,76.80
2017-11-27T04:00:45.357Z,76.90
2017-11-27T04:03:12.861Z,76.80
2017-11-27T04:05:40.373Z,76.50
2017-11-27T04:08:07.881Z,76.60
2017-11-27T04:10:35.377Z,76.80
2017-11-27T04:13:03.644Z,76.80
2017-11-27T04:15:31.920Z,76.80
2017-11-27T04:18:00.200Z,76.80
2017-11-27T04:20:28.471Z,77.10
2017-11-27T04:22:56.743Z,77.20
2017-11-27T04:25:24.249Z,77.20
2017-11-27T04:27:51.764Z,77.00
2017-11-27T04:30:20.029Z,77.10
2017-11-27T04:32:47.529Z,77.00
2017-11-27T04:35:15.053Z,77.00
2017-11-27T04:37:43.328Z,76.80
2017-11-27T04:40:10.855Z,76.70
2017-11-27T04:42:38.372Z,77.70
2017-11-27T04:45:05.884Z,77.00
2017-11-27T04:47:33.407Z,77.40
2017-11-27T04:50:00.905Z,77.40
2017-11-27T04:52:28.422Z,77.60
2017-11-27T04:54:55.924Z,77.20
2017-11-27T04:57:24.930Z,77.30
2017-11-27T04:59:52.435Z,77.20
2017-11-27T05:02:19.936Z,77.50
2017-11-27T05:04:48.961Z,77.50
2017-11-27T05:07:17.226Z,77.10
2017-11-27T05:09:45.489Z,77.00
2017-11-27T05:12:13.179Z,77.00
2017-11-27T05:14:41.442Z,77.90
2017-11-27T05:17:09.704Z,77.20
2017-11-27T05:19:37.994Z,76.80
2017-11-27T05:22:06.485Z,77.20
2017-11-27T05:24:34.751Z,77.40
2017-11-27T05:27:03.025Z,77.50
2017-11-27T05:29:31.302Z,77.50
2017-11-27T05:31:59.578Z,77.30
2017-11-27T05:34:27.861Z,77.50
2017-11-27T05:36:56.144Z,77.40
2017-11-27T05:39:24.420Z,77.40
2017-11-27T05:41:52.682Z,77.20
2017-11-27T05:44:20.973Z,77.30
2017-11-27T05:46:49.237Z,77.20
2017-11-27T05:49:17.725Z,77.40
2017-11-27T05:51:46.001Z,77.70
2017-11-27T05:54:14.306Z,78.00
2017-11-27T05:56:42.553Z,78.00
2017-11-27T05:59:10.824Z,78.10
2017-11-27T06:01:39.112Z,78.10
2017-11-27T06:04:07.383Z,78.20
2017-11-27T06:06:35.665Z,78.30
2017-11-27T06:09:03.929Z,78.20
2017-11-27T06:11:32.219Z,78.20
2017-11-27T06:14:00.492Z,78.20
2017-11-27T06:16:28.788Z,77.90
2017-11-27T06:18:56.304Z,77.80
2017-11-27T06:21:23.796Z,77.90
2017-11-27T06:23:51.300Z,77.90
2017-11-27T06:26:19.041Z,77.50
2017-11-27T06:28:46.544Z,77.50
2017-11-27T06:31:14.041Z,77.60
2017-11-27T06:33:41.552Z,77.90
2017-11-27T06:36:09.060Z,79.00
2017-11-27T06:38:36.580Z,77.80
2017-11-27T06:41:04.088Z,77.40
2017-11-27T06:43:31.589Z,77.30
2017-11-27T06:45:59.280Z,77.10
2017-11-27T06:48:27.568Z,77.00
2017-11-27T06:50:55.068Z,77.00
2017-11-27T06:53:22.597Z,76.70
2017-11-27T06:55:50.840Z,76.70
2017-11-27T06:58:19.325Z,77.10
2017-11-27T07:00:47.597Z,77.30
2017-11-27T07:03:15.861Z,77.20
2017-11-27T07:05:43.356Z,77.20
2017-11-27T07:08:10.868Z,77.70
2017-11-27T07:10:38.364Z,76.70
2017-11-27T07:13:05.885Z,76.40
2017-11-27T07:15:33.405Z,76.50
2017-11-27T07:18:00.905Z,76.50
2017-11-27T07:20:28.420Z,76.20
2017-11-27T07:22:55.928Z,75.90
2017-11-27T07:25:23.428Z,76.10
2017-11-27T07:27:50.929Z,76.40
2017-11-27T07:30:18.441Z,76.10
2017-11-27T07:32:45.952Z,75.90
2017-11-27T07:35:13.452Z,76.30
2017-11-27T07:37:46.624Z,76.30
2017-11-27T07:40:15.120Z,76.60
2017-11-27T07:42:43.396Z,76.30
2017-11-27T07:45:10.928Z,76.20
2017-11-27T07:47:38.433Z,76.10
2017-11-27T07:50:05.957Z,76.20
2017-11-27T07:52:34.221Z,75.70
2017-11-27T07:55:01.770Z,75.50
2017-11-27T07:57:29.265Z,75.80
2017-11-27T07:59:56.797Z,75.30
2017-11-27T08:02:25.126Z,75.20
2017-11-27T08:04:52.653Z,74.80
2017-11-27T08:07:20.923Z,75.10
2017-11-27T08:09:48.458Z,75.10
2017-11-27T08:12:16.109Z,74.40
2017-11-27T08:14:43.621Z,74.80
2017-11-27T08:17:11.917Z,73.70
2017-11-27T08:19:39.432Z,73.70
2017-11-27T08:22:07.724Z,73.60
2017-11-27T08:24:36.034Z,74.40
2017-11-27T08:27:03.545Z,73.60
2017-11-27T08:29:32.041Z,73.30
2017-11-27T08:31:59.565Z,73.30
2017-11-27T08:34:27.083Z,72.80
2017-11-27T08:36:54.794Z,72.20
2017-11-27T08:39:22.287Z,70.80
2017-11-27T08:41:49.824Z,70.80
2017-11-27T08:44:17.369Z,70.70
2017-11-27T08:46:45.227Z,71.00
2017-11-27T08:49:12.784Z,70.80
2017-11-27T08:51:40.307Z,70.10
2017-11-27T08:54:07.813Z,70.00
2017-11-27T08:56:36.084Z,70.20
2017-11-27T08:59:04.415Z,70.60
2017-11-27T09:01:31.932Z,70.70
2017-11-27T09:03:59.642Z,70.60
2017-11-27T09:06:27.142Z,70.20
2017-11-27T09:08:54.662Z,69.60
2017-11-27T09:11:22.172Z,69.10
2017-11-27T09:13:49.710Z,69.00
2017-11-27T09:16:17.205Z,69.60
2017-11-27T09:18:45.497Z,69.20
2017-11-27T09:21:13.039Z,69.20
2017-11-27T09:23:41.352Z,69.00
2017-11-27T09:26:08.885Z,69.00
2017-11-27T09:28:37.236Z,69.70
2017-11-27T09:31:04.737Z,69.70
2017-11-27T09:33:32.236Z,69.40
2017-11-27T09:36:00.001Z,68.80
2017-11-27T09:38:27.552Z,68.40
2017-11-27T09:40:55.069Z,68.30
2017-11-27T09:43:22.588Z,67.60
2017-11-27T09:45:50.136Z,67.90
2017-11-27T09:48:17.647Z,68.50
2017-11-27T09:50:45.161Z,67.70
2017-11-27T09:53:14.828Z,66.80
2017-11-27T09:55:42.540Z,67.50
2017-11-27T09:58:10.060Z,67.60
2017-11-27T10:00:37.607Z,67.70
2017-11-27T10:03:05.101Z,67.30
2017-11-27T10:05:32.640Z,67.50
2017-11-27T10:08:00.157Z,67.30
2017-11-27T10:10:28.432Z,66.80
2017-11-27T10:12:56.691Z,65.60
2017-11-27T10:15:24.217Z,65.60
2017-11-27T10:17:51.929Z,64.10
2017-11-27T10:20:20.219Z,64.40
2017-11-27T10:22:47.736Z,64.30
2017-11-27T10:25:15.274Z,65.00
2017-11-27T10:27:42.773Z,65.60
2017-11-27T10:30:11.044Z,65.60
2017-11-27T10:32:38.557Z,66.40
2017-11-27T10:35:06.052Z,66.10
2017-11-27T10:37:33.549Z,66.40
2017-11-27T10:40:01.502Z,66.20
2017-11-27T10:42:29.763Z,66.50
2017-11-27T10:44:57.258Z,66.30
2017-11-27T10:47:24.749Z,65.90
2017-11-27T10:49:52.266Z,65.70
2017-11-27T10:52:19.779Z,65.00
2017-11-27T10:54:47.318Z,65.50
2017-11-27T10:57:14.834Z,65.30
2017-11-27T10:59:42.340Z,65.10
2017-11-27T11:02:09.860Z,65.30
2017-11-27T11:04:37.504Z,64.50
2017-11-27T11:07:05.780Z,63.70
2017-11-27T11:09:34.040Z,63.30
2017-11-27T11:12:01.542Z,63.20
2017-11-27T11:14:29.048Z,62.90
2017-11-27T11:16:56.539Z,62.50
2017-11-27T11:19:24.800Z,63.10
2017-11-27T11:21:53.067Z,61.90
2017-11-27T11:24:21.344Z,61.80
2017-11-27T11:26:49.620Z,62.00
2017-11-27T11:29:17.124Z,62.00
2017-11-27T11:31:44.643Z,62.50
2017-11-27T11:34:12.906Z,63.00
2017-11-27T11:36:40.406Z,62.90
2017-11-27T11:39:07.928Z,62.70
2017-11-27T11:41:35.420Z,62.00
2017-11-27T11:44:02.919Z,62.00
2017-11-27T11:46:30.429Z,62.50
2017-11-27T11:48:58.780Z,60.90
2017-11-27T11:51:26.564Z,60.80
2017-11-27T11:53:54.828Z,59.90
2017-11-27T11:56:22.316Z,59.90
2017-11-27T11:58:49.812Z,58.80
2017-11-27T12:01:17.304Z,58.30
2017-11-27T12:03:45.570Z,57.40
2017-11-27T12:12:59.877Z,57.40
2017-11-27T12:15:28.161Z,57.20
2017-11-27T12:17:56.424Z,57.80
2017-11-27T12:20:23.921Z,57.80
2017-11-27T12:22:51.556Z,57.10
2017-11-27T12:25:19.821Z,56.70
2017-11-27T12:27:47.336Z,56.70
2017-11-27T12:30:14.845Z,57.20
2017-11-27T12:32:43.112Z,57.60
2017-11-27T12:35:10.604Z,57.60
2017-11-27T12:37:38.226Z,57.70
2017-11-27T12:40:05.725Z,57.90
2017-11-27T12:42:33.225Z,58.10
2017-11-27T12:45:00.717Z,58.20
2017-11-27T12:47:28.977Z,60.40
2017-11-27T12:49:56.474Z,60.20
2017-11-27T12:52:23.993Z,57.60
2017-11-27T12:54:51.488Z,57.10
2017-11-27T12:57:18.997Z,57.20
2017-11-27T12:59:46.493Z,56.80
2017-11-27T13:02:14.768Z,49.10
2017-11-27T13:04:42.273Z,48.40
2017-11-27T13:07:09.785Z,43.70
2017-11-27T13:09:37.306Z,38.60
2017-11-27T13:12:04.814Z,35.80
2017-11-27T13:14:32.322Z,33.40
2017-11-27T13:16:59.820Z,32.00
2017-11-27T13:19:28.085Z,30.00
2017-11-27T13:21:56.573Z,30.80
2017-11-27T13:24:24.856Z,29.10
2017-11-27T13:26:52.364Z,29.00
2017-11-27T13:29:19.937Z,28.30
2017-11-27T13:31:48.952Z,28.40
2017-11-27T13:34:17.224Z,28.30
2017-11-27T13:36:44.805Z,28.20
2017-11-27T13:39:13.077Z,28.80
2017-11-27T13:41:41.568Z,29.70
2017-11-27T13:44:09.069Z,29.70
2017-11-27T13:46:36.569Z,29.00
2017-11-27T13:49:04.852Z,29.10
2017-11-27T13:51:33.153Z,28.40
2017-11-27T13:54:00.654Z,28.40
2017-11-27T13:56:28.185Z,28.70
2017-11-27T13:58:55.678Z,30.10
2017-11-27T14:01:23.198Z,32.50
2017-11-27T14:03:50.712Z,35.80
2017-11-27T14:06:18.979Z,40.50
2017-11-27T14:08:47.249Z,42.90
2017-11-27T14:11:14.748Z,42.60
2017-11-27T14:13:42.245Z,44.90
2017-11-27T14:16:09.754Z,46.20
2017-11-27T14:18:38.008Z,48.10
2017-11-27T14:21:05.689Z,48.00
2017-11-27T14:23:33.960Z,49.80
2017-11-27T14:26:02.226Z,50.20
2017-11-27T14:28:30.515Z,50.90
2017-11-27T14:30:58.014Z,50.80
2017-11-27T14:33:25.508Z,51.60
2017-11-27T14:35:53.008Z,52.10
2017-11-27T14:38:20.496Z,52.90
2017-11-27T14:40:48.005Z,53.50
2017-11-27T14:43:16.289Z,54.60
2017-11-27T14:45:44.544Z,54.40
2017-11-27T14:48:12.821Z,53.70
2017-11-27T14:50:41.105Z,53.70
2017-11-27T14:53:09.365Z,53.60
2017-11-27T14:55:36.861Z,54.10
2017-11-27T14:58:04.356Z,53.70
2017-11-27T15:00:31.847Z,53.30
2017-11-27T15:02:59.341Z,53.30
2017-11-27T15:05:26.830Z,53.40
2017-11-27T15:07:54.324Z,53.40
2017-11-27T15:10:22.713Z,53.70
2017-11-27T15:12:50.975Z,54.00
2017-11-27T15:15:19.449Z,54.50
2017-11-27T15:17:48.453Z,55.10
2017-11-27T15:20:16.730Z,55.40
2017-11-27T15:22:45.905Z,55.90
2017-11-27T15:25:13.401Z,55.80
2017-11-27T15:27:41.656Z,56.60
2017-11-27T15:30:09.149Z,56.60
2017-11-27T15:32:36.668Z,57.00
2017-11-27T15:35:05.664Z,57.60
2017-11-27T15:37:33.156Z,57.60
2017-11-27T15:40:00.657Z,58.20
2017-11-27T15:42:28.152Z,58.00
2017-11-27T15:44:56.422Z,58.20
2017-11-27T15:47:24.694Z,58.20
2017-11-27T15:49:52.188Z,58.20
2017-11-27T15:52:19.828Z,58.30
2017-11-27T15:54:48.097Z,58.40
2017-11-27T15:57:16.364Z,58.30
2017-11-27T15:59:44.635Z,58.20
2017-11-27T16:02:12.920Z,58.20
2017-11-27T16:04:41.184Z,58.20
2017-11-27T16:07:09.464Z,58.20
2017-11-27T16:09:36.973Z,58.10
2017-11-27T16:12:04.464Z,58.30
2017-11-27T16:14:31.968Z,58.60
2017-11-27T16:16:59.597Z,58.60
2017-11-27T16:19:27.104Z,58.80
2017-11-27T16:21:54.632Z,59.00
2017-11-27T16:24:22.899Z,59.40
2017-11-27T16:26:50.399Z,59.30
2017-11-27T16:29:17.893Z,59.60
2017-11-27T16:31:45.388Z,59.70
2017-11-27T16:34:13.654Z,60.30
2017-11-27T16:36:41.932Z,60.50
2017-11-27T16:39:10.210Z,60.50
2017-11-27T16:41:38.484Z,60.60
2017-11-27T16:44:06.745Z,60.60
2017-11-27T16:46:34.246Z,60.60
2017-11-27T16:49:01.777Z,60.90
2017-11-27T16:51:30.044Z,61.10
2017-11-27T16:53:57.561Z,61.10
2017-11-27T16:56:25.060Z,61.20
2017-11-27T16:58:52.559Z,61.30
2017-11-27T17:01:20.054Z,61.70
2017-11-27T17:03:47.581Z,61.90
2017-11-27T17:06:15.112Z,62.00
2017-11-27T17:08:43.372Z,62.50
2017-11-27T17:11:10.869Z,62.40
2017-11-27T17:13:38.386Z,62.90
2017-11-27T17:16:05.886Z,63.00
2017-11-27T17:18:33.378Z,64.00
2017-11-27T17:21:00.893Z,64.20
2017-11-27T17:23:28.391Z,64.40
2017-11-27T17:25:56.771Z,64.80
2017-11-27T17:28:24.285Z,64.80
2017-11-27T17:30:51.780Z,65.10
2017-11-27T17:33:19.274Z,66.00
2017-11-27T17:35:48.301Z,65.10
2017-11-27T17:38:15.812Z,65.10
2017-11-27T17:40:43.308Z,65.10
2017-11-27T17:43:11.781Z,65.40
2017-11-27T17:45:40.048Z,65.50
2017-11-27T17:48:08.340Z,65.60
2017-11-27T17:50:36.613Z,66.50
2017-11-27T17:53:04.876Z,66.00
2017-11-27T17:55:33.165Z,66.50
2017-11-27T17:58:01.425Z,66.50
2017-11-27T18:00:29.725Z,66.70
2017-11-27T18:02:57.221Z,66.70
2017-11-27T18:05:24.733Z,66.90
2017-11-27T18:07:52.993Z,67.60
2017-11-27T18:10:20.486Z,67.50
2017-11-27T18:12:47.985Z,68.10
2017-11-27T18:15:15.503Z,68.10
2017-11-27T18:17:43.003Z,68.10
2017-11-27T18:20:10.501Z,68.00
2017-11-27T18:22:38.767Z,67.70
2017-11-27T18:27:41.787Z,67.10
2017-11-27T18:30:09.298Z,67.00
2017-11-27T18:32:36.794Z,66.70
2017-11-27T18:35:05.064Z,66.00
2017-11-27T18:37:33.449Z,65.80
2017-11-27T18:40:01.730Z,65.40
2017-11-27T18:42:29.988Z,65.10
2017-11-27T18:44:58.258Z,64.70
2017-11-27T18:47:25.775Z,64.70
2017-11-27T18:49:53.272Z,64.50
2017-11-27T18:52:20.784Z,64.50
2017-11-27T18:54:48.288Z,64.60
2017-11-27T18:57:15.800Z,64.80
2017-11-27T18:59:43.292Z,64.70
2017-11-27T19:02:10.797Z,64.70
2017-11-27T19:04:38.303Z,65.20
2017-11-27T19:07:05.817Z,65.50
2017-11-27T19:09:33.317Z,65.50
2017-11-27T19:12:01.029Z,65.60
2017-11-27T19:14:29.326Z,66.30
2017-11-27T19:16:56.818Z,66.30
2017-11-27T19:19:24.324Z,66.60
2017-11-27T19:21:52.588Z,67.00
2017-11-27T19:24:20.977Z,67.00
2017-11-27T19:26:49.241Z,66.90
2017-11-27T19:29:17.729Z,67.00
2017-11-27T19:31:46.005Z,67.10
2017-11-27T19:34:14.289Z,66.70
2017-11-27T19:36:42.559Z,66.20
2017-11-27T19:39:10.845Z,66.00
2017-11-27T19:41:39.121Z,66.40
2017-11-27T19:44:07.384Z,65.30
2017-11-27T19:46:34.899Z,65.20
2017-11-27T19:49:02.437Z,65.10
2017-11-27T19:51:29.950Z,65.10
2017-11-27T19:53:57.462Z,65.00
2017-11-27T19:56:25.126Z,64.70
2017-11-27T19:58:52.629Z,64.80
2017-11-27T20:01:20.139Z,64.70
2017-11-27T20:03:47.749Z,65.00
2017-11-27T20:06:15.258Z,64.70
2017-11-27T20:08:42.788Z,64.50
2017-11-27T20:11:11.058Z,64.70
2017-11-27T20:13:39.341Z,64.80
2017-11-27T20:16:06.883Z,64.80
2017-11-27T20:18:35.197Z,64.70
2017-11-27T20:21:02.759Z,64.70
2017-11-27T20:23:30.498Z,64.70
2017-11-27T20:25:58.028Z,64.70
2017-11-27T20:28:25.533Z,64.70
2017-11-27T20:30:53.041Z,64.80
2017-11-27T20:33:20.748Z,65.00
2017-11-27T20:35:48.245Z,65.10
2017-11-27T20:38:15.752Z,65.30
2017-11-27T20:40:46.178Z,65.50
2017-11-27T20:43:13.693Z,65.60
2017-11-27T20:45:41.200Z,65.70
2017-11-27T20:48:09.475Z,65.90
2017-11-27T20:50:37.756Z,66.10
2017-11-27T20:53:05.286Z,66.10
2017-11-27T20:55:32.822Z,66.30
2017-11-27T20:58:00.325Z,66.50
2017-11-27T21:00:28.584Z,66.80
2017-11-27T21:02:56.113Z,66.70
2017-11-27T21:05:23.614Z,67.60
2017-11-27T21:07:51.889Z,67.80
2017-11-27T21:10:20.174Z,67.10
2017-11-27T21:12:48.429Z,67.20
2017-11-27T21:15:16.713Z,68.10
2017-11-27T21:17:44.986Z,67.30
2017-11-27T21:20:13.249Z,67.20
2017-11-27T21:22:40.745Z,67.20
2017-11-27T21:25:08.240Z,67.30
2017-11-27T21:27:35.741Z,67.30
2017-11-27T21:30:04.028Z,67.30
2017-11-27T21:32:32.300Z,67.60
2017-11-27T21:35:00.560Z,67.70
2017-11-27T21:37:28.058Z,67.60
2017-11-27T21:39:55.556Z,68.00
2017-11-27T21:42:23.049Z,67.70
2017-11-27T21:44:51.313Z,67.70
2017-11-27T21:47:18.810Z,67.70
2017-11-27T21:49:46.309Z,67.80
2017-11-27T21:52:13.814Z,68.20
2017-11-27T21:54:41.332Z,68.20
2017-11-27T21:57:08.840Z,68.00
2017-11-27T21:59:36.337Z,68.30
2017-11-27T22:02:03.844Z,68.50
2017-11-27T22:04:31.349Z,68.60
2017-11-27T22:06:58.837Z,68.70
2017-11-27T22:09:26.517Z,68.70
2017-11-27T22:11:54.797Z,68.60
2017-11-27T22:14:23.060Z,68.60
2017-11-27T22:16:51.333Z,68.60
2017-11-27T22:19:19.621Z,68.70
2017-11-27T22:21:47.891Z,68.60
2017-11-27T22:24:16.157Z,68.70
2017-11-27T22:26:43.657Z,68.70
2017-11-27T22:29:11.156Z,68.70
2017-11-27T22:31:38.652Z,68.80
2017-11-27T22:34:06.930Z,69.20
2017-11-27T22:36:35.196Z,69.30
2017-11-27T22:39:03.684Z,69.30
2017-11-27T22:41:31.964Z,69.40
2017-11-27T22:44:00.216Z,69.40
2017-11-27T22:46:27.727Z,69.40
2017-11-27T22:48:55.220Z,70.50
2017-11-27T22:51:22.742Z,69.60
2017-11-27T22:53:50.269Z,69.60
2017-11-27T22:56:18.532Z,69.40
2017-11-27T22:58:46.802Z,69.40
2017-11-27T23:01:15.080Z,69.40
2017-11-27T23:03:42.587Z,69.40
2017-11-27T23:06:10.082Z,69.30
2017-11-27T23:08:38.341Z,68.90
2017-11-27T23:11:05.839Z,68.90
2017-11-27T23:13:34.149Z,68.60
2017-11-27T23:16:01.636Z,68.50
2017-11-27T23:18:29.241Z,68.30
2017-11-27T23:20:57.501Z,67.90
2017-11-27T23:23:25.013Z,67.80
2017-11-27T23:25:52.513Z,67.50
2017-11-27T23:28:20.808Z,66.90
2017-11-27T23:30:49.073Z,66.40
2017-11-27T23:33:16.569Z,66.40
2017-11-27T23:35:44.084Z,66.10
2017-11-27T23:38:12.350Z,65.90
2017-11-27T23:40:39.840Z,65.80
2017-11-27T23:43:08.122Z,65.60
2017-11-27T23:45:36.410Z,65.60
2017-11-27T23:48:03.900Z,65.50
2017-11-27T23:50:31.612Z,65.40
2017-11-27T23:52:59.139Z,64.50
2017-11-27T23:55:26.633Z,64.80
2017-11-27T23:57:54.892Z,64.70
